createdAt,value
2022-12-23T00:00:59.174Z,98974.38
2022-12-23T00:03:29.702Z,98977.88
2022-12-23T00:05:59.801Z,98980.50
2022-12-23T00:08:30.838Z,98980.47
2022-12-23T00:11:00.043Z,98975.25
2022-12-23T00:13:50.775Z,98971.75
2022-12-23T00:16:20.222Z,98969.16
2022-12-23T00:18:51.953Z,98972.66
2022-12-23T00:21:22.093Z,98980.50
2022-12-23T00:23:52.647Z,98964.81
2022-12-23T00:26:24.981Z,98970.06
2022-12-23T00:28:58.822Z,98963.06
2022-12-23T00:31:28.936Z,98972.66
2022-12-23T00:33:58.492Z,98969.19
2022-12-23T00:36:30.688Z,98974.41
2022-12-23T00:39:19.355Z,98990.09
2022-12-23T00:42:16.903Z,98975.28
2022-12-23T00:44:47.922Z,98984.03
2022-12-23T00:47:30.904Z,98988.34
2022-12-23T00:49:59.818Z,98983.13
2022-12-23T00:52:28.698Z,98988.38
2022-12-23T00:54:58.020Z,98979.66
2022-12-23T00:57:27.162Z,98986.63
2022-12-23T00:59:58.266Z,98981.41
2022-12-23T01:02:44.626Z,98987.50
2022-12-23T01:08:17.658Z,98991.84
2022-12-23T01:10:47.155Z,98995.34
2022-12-23T01:13:16.772Z,99004.06
2022-12-23T01:15:46.501Z,98999.69
2022-12-23T01:18:15.744Z,98996.22
2022-12-23T01:20:44.973Z,99006.69
2022-12-23T01:23:14.399Z,99006.72
2022-12-23T01:25:46.157Z,99013.66
2022-12-23T01:28:15.299Z,99007.53
2022-12-23T01:30:44.819Z,99012.81
2022-12-23T01:33:14.589Z,99015.41
2022-12-23T01:35:44.073Z,99016.28
2022-12-23T01:38:13.399Z,99025.00
2022-12-23T01:40:45.238Z,99018.03
2022-12-23T01:43:18.153Z,99032.84
2022-12-23T01:45:47.595Z,99021.53
2022-12-23T01:48:21.586Z,99029.38
2022-12-23T01:50:55.185Z,99032.00
2022-12-23T01:53:28.125Z,99032.88
2022-12-23T01:56:03.557Z,99039.88
2022-12-23T01:58:36.582Z,99034.66
2022-12-23T02:01:35.585Z,99032.03
2022-12-23T02:04:08.222Z,99032.03
2022-12-23T02:07:00.043Z,99034.66
2022-12-23T02:09:31.772Z,99043.34
2022-12-23T02:12:28.537Z,99044.22
2022-12-23T02:15:26.806Z,99032.03
2022-12-23T02:18:06.621Z,99024.19
2022-12-23T02:21:04.807Z,99025.94
2022-12-23T02:24:08.129Z,99039.00
2022-12-23T02:26:59.946Z,99037.25
2022-12-23T02:30:08.209Z,99046.84
2022-12-23T02:32:47.534Z,99046.84
2022-12-23T02:35:25.555Z,99052.94
2022-12-23T02:38:02.837Z,99058.22
2022-12-23T02:40:39.862Z,99059.94
2022-12-23T02:43:18.066Z,99066.94
2022-12-23T02:45:54.341Z,99072.19
2022-12-23T02:48:33.556Z,99085.25
2022-12-23T02:51:07.686Z,99073.03
2022-12-23T02:53:42.132Z,99085.25
2022-12-23T02:56:13.681Z,99090.47
2022-12-23T02:58:47.789Z,99087.88
2022-12-23T03:01:19.729Z,99081.78
2022-12-23T03:03:53.008Z,99090.47
2022-12-23T03:06:26.798Z,99098.34
2022-12-23T03:08:59.430Z,99103.56
2022-12-23T03:11:40.245Z,99113.13
2022-12-23T03:14:37.745Z,99106.16
2022-12-23T03:17:20.633Z,99105.28
2022-12-23T03:19:57.569Z,99114.00
2022-12-23T03:22:33.824Z,99118.34
2022-12-23T03:25:10.461Z,99121.88
2022-12-23T03:27:46.388Z,99130.56
2022-12-23T03:30:18.810Z,99130.56
2022-12-23T03:32:50.958Z,99130.56
2022-12-23T03:35:25.046Z,99128.81
2022-12-23T03:37:58.173Z,99114.84
2022-12-23T03:40:34.175Z,99125.31
2022-12-23T03:43:24.505Z,99127.94
2022-12-23T03:46:01.017Z,99123.59
2022-12-23T03:48:49.672Z,99123.59
2022-12-23T03:51:34.901Z,99121.84
2022-12-23T03:54:13.422Z,99127.06
2022-12-23T03:56:46.563Z,99116.56
2022-12-23T03:59:19.591Z,99119.16
2022-12-23T04:02:09.657Z,99121.78
2022-12-23T04:05:02.977Z,99117.41
2022-12-23T04:07:39.571Z,99111.28
2022-12-23T04:10:15.545Z,99121.75
2022-12-23T04:12:45.149Z,99127.84
2022-12-23T04:15:22.405Z,99121.75
2022-12-23T04:17:56.604Z,99135.69
2022-12-23T04:20:29.917Z,99139.16
2022-12-23T04:23:04.234Z,99129.56
2022-12-23T04:25:34.965Z,99119.06
2022-12-23T04:28:05.602Z,99126.91
2022-12-23T04:30:39.164Z,99124.25
2022-12-23T04:33:23.419Z,99132.06
2022-12-23T04:36:22.838Z,99133.81
2022-12-23T04:39:11.385Z,99125.91
2022-12-23T04:41:46.172Z,99134.63
2022-12-23T04:44:23.333Z,99125.03
2022-12-23T04:46:54.744Z,99123.25
2022-12-23T04:49:40.688Z,99133.72
2022-12-23T04:52:13.907Z,99128.50
2022-12-23T04:54:51.765Z,99135.44
2022-12-23T04:57:35.691Z,99135.44
2022-12-23T05:00:39.528Z,99137.16
2022-12-23T05:03:21.267Z,99147.63
2022-12-23T05:05:52.255Z,99147.63
2022-12-23T05:09:22.079Z,99151.94
2022-12-23T05:12:08.543Z,99154.56
2022-12-23T05:14:46.860Z,99149.34
2022-12-23T05:17:18.515Z,99151.06
2022-12-23T05:20:14.378Z,99152.78
2022-12-23T05:22:47.272Z,99161.50
2022-12-23T05:25:16.585Z,99147.56
2022-12-23T05:27:47.595Z,99144.94
2022-12-23T05:30:58.777Z,99149.28
2022-12-23T05:33:35.231Z,99138.84
2022-12-23T05:36:10.420Z,99140.59
2022-12-23T05:38:51.355Z,99139.69
2022-12-23T05:41:27.852Z,99144.91
2022-12-23T05:44:17.493Z,99146.66
2022-12-23T05:46:55.221Z,99152.72
2022-12-23T05:49:26.804Z,99151.84
2022-12-23T05:51:56.128Z,99164.91
2022-12-23T05:54:39.350Z,99173.63
2022-12-23T05:57:37.490Z,99175.34
2022-12-23T06:00:22.672Z,99180.59
2022-12-23T06:03:00.718Z,99184.94
2022-12-23T06:05:33.472Z,99191.03
2022-12-23T06:08:19.240Z,99201.50
2022-12-23T06:10:48.846Z,99202.38
2022-12-23T06:13:24.340Z,99198.03
2022-12-23T06:16:15.803Z,99198.88
2022-12-23T06:19:04.539Z,99204.16
2022-12-23T06:21:51.601Z,99197.19
2022-12-23T06:24:25.464Z,99207.63
2022-12-23T06:27:02.045Z,99196.31
2022-12-23T06:32:48.927Z,99190.22
2022-12-23T06:35:18.721Z,99184.97
2022-12-23T06:37:48.103Z,99196.31
2022-12-23T06:40:22.099Z,99190.22
2022-12-23T06:42:53.754Z,99185.84
2022-12-23T06:45:23.407Z,99185.84
2022-12-23T06:47:58.348Z,99182.41
2022-12-23T06:50:29.313Z,99175.41
2022-12-23T06:53:11.728Z,99171.06
2022-12-23T06:55:50.807Z,99165.84
2022-12-23T06:58:30.649Z,99168.47
2022-12-23T07:01:00.503Z,99174.56
2022-12-23T07:03:41.010Z,99178.91
2022-12-23T07:06:13.551Z,99176.31
2022-12-23T07:08:43.210Z,99180.69
2022-12-23T07:11:19.202Z,99179.81
2022-12-23T07:14:00.819Z,99186.78
2022-12-23T07:16:32.827Z,99193.75
2022-12-23T07:19:11.613Z,99205.97
2022-12-23T07:21:45.386Z,99220.81
2022-12-23T07:24:15.285Z,99231.25
2022-12-23T07:26:44.396Z,99233.00
2022-12-23T07:29:16.706Z,99238.22
2022-12-23T07:31:49.731Z,99239.97
2022-12-23T07:34:24.701Z,99251.34
2022-12-23T07:36:55.054Z,99256.56
2022-12-23T07:39:23.597Z,99257.44
2022-12-23T07:42:16.402Z,99253.94
2022-12-23T07:44:44.830Z,99250.44
2022-12-23T07:47:16.377Z,99243.47
2022-12-23T07:50:20.053Z,99262.66
2022-12-23T07:52:54.981Z,99251.34
2022-12-23T07:55:38.525Z,99250.50
2022-12-23T07:58:13.070Z,99252.25
2022-12-23T08:00:45.049Z,99252.25
2022-12-23T08:03:17.960Z,99247.03
2022-12-23T08:06:00.882Z,99244.44
2022-12-23T08:08:33.086Z,99242.72
2022-12-23T08:14:21.451Z,99247.06
2022-12-23T08:17:19.445Z,99240.09
2022-12-23T08:19:55.583Z,99247.06
2022-12-23T08:22:42.451Z,99245.31
2022-12-23T08:25:20.868Z,99239.25
2022-12-23T08:28:00.762Z,99232.28
2022-12-23T08:30:33.437Z,99231.41
2022-12-23T08:33:08.960Z,99228.81
2022-12-23T08:35:44.554Z,99235.81
2022-12-23T08:38:19.355Z,99222.75
2022-12-23T08:41:04.557Z,99219.25
2022-12-23T08:43:54.669Z,99211.41
2022-12-23T08:49:25.968Z,99220.16
2022-12-23T08:54:55.518Z,99223.69
2022-12-23T08:57:34.131Z,99230.66
2022-12-23T09:00:08.036Z,99214.13
2022-12-23T09:02:44.382Z,99221.09
2022-12-23T09:05:43.223Z,99220.25
2022-12-23T09:11:04.026Z,99229.00
2022-12-23T09:13:35.866Z,99240.34
2022-12-23T09:16:29.735Z,99240.34
2022-12-23T09:19:11.423Z,99240.34
2022-12-23T09:21:43.579Z,99228.16
2022-12-23T09:27:36.101Z,99223.78
2022-12-23T09:30:08.477Z,99216.81
2022-12-23T09:32:57.979Z,99223.81
2022-12-23T09:35:52.120Z,99220.28
2022-12-23T09:38:41.104Z,99208.13
2022-12-23T09:41:54.219Z,99199.38
2022-12-23T09:45:03.686Z,99196.78
2022-12-23T09:47:45.017Z,99197.66
2022-12-23T09:50:26.858Z,99193.31
2022-12-23T09:53:11.836Z,99202.94
2022-12-23T09:55:54.824Z,99188.13
2022-12-23T09:58:34.634Z,99180.28
2022-12-23T10:01:18.104Z,99174.16
2022-12-23T10:04:27.972Z,99170.69
2022-12-23T10:07:19.867Z,99165.44
2022-12-23T10:10:20.658Z,99151.53
2022-12-23T10:12:55.563Z,99150.63
2022-12-23T10:15:36.832Z,99156.75
2022-12-23T10:18:19.964Z,99148.91
2022-12-23T10:23:52.501Z,99128.84
2022-12-23T10:26:38.670Z,99125.34
2022-12-23T10:29:21.650Z,99111.41
2022-12-23T10:32:23.344Z,99106.19
2022-12-23T10:35:06.195Z,99102.69
2022-12-23T10:38:03.594Z,99099.19
2022-12-23T10:40:42.315Z,99097.47
2022-12-23T10:43:24.574Z,99115.75
2022-12-23T10:46:14.940Z,99110.56
2022-12-23T10:48:58.390Z,99107.94
2022-12-23T10:51:37.324Z,99102.81
2022-12-23T10:54:12.733Z,99095.88
2022-12-23T10:56:45.853Z,99084.53
2022-12-23T10:59:17.263Z,99085.44
2022-12-23T11:01:59.035Z,99080.19
2022-12-23T11:04:57.260Z,99081.94
2022-12-23T11:07:49.647Z,99081.94
2022-12-23T11:10:24.179Z,99065.34
2022-12-23T11:12:56.151Z,99062.72
2022-12-23T11:15:34.317Z,99057.50
2022-12-23T11:18:11.609Z,99050.53
2022-12-23T11:20:46.850Z,99054.03
2022-12-23T11:23:31.944Z,99052.28
2022-12-23T11:26:09.641Z,99052.25
2022-12-23T11:28:52.373Z,99045.28
2022-12-23T11:31:36.728Z,99045.28
2022-12-23T11:34:22.427Z,99031.25
2022-12-23T11:37:03.341Z,99035.63
2022-12-23T11:39:41.998Z,99031.25
2022-12-23T11:42:23.556Z,99029.50
2022-12-23T11:44:56.491Z,99031.25
2022-12-23T11:47:31.397Z,99009.47
2022-12-23T11:50:03.446Z,98998.19
2022-12-23T11:52:35.368Z,98992.97
2022-12-23T11:55:10.900Z,98972.06
2022-12-23T11:57:45.259Z,98962.47
2022-12-23T12:00:22.530Z,98961.63
2022-12-23T12:02:55.203Z,98950.31
2022-12-23T12:05:31.158Z,98944.22
2022-12-23T12:08:06.017Z,98938.13
2022-12-23T12:10:41.115Z,98922.44
2022-12-23T12:13:27.226Z,98909.38
2022-12-23T12:16:09.664Z,98903.28
2022-12-23T12:18:43.905Z,98898.03
2022-12-23T12:21:18.489Z,98899.78
2022-12-23T12:24:08.228Z,98904.16
2022-12-23T12:26:48.153Z,98892.78
2022-12-23T12:29:23.001Z,98899.78
2022-12-23T12:32:00.306Z,98898.91
2022-12-23T12:34:38.371Z,98898.03
2022-12-23T12:37:20.241Z,98902.38
2022-12-23T12:39:56.208Z,98892.78
2022-12-23T12:42:32.350Z,98895.41
2022-12-23T12:45:16.322Z,98883.16
2022-12-23T12:47:57.848Z,98884.03
2022-12-23T12:50:37.932Z,98877.91
2022-12-23T12:53:21.915Z,98867.44
2022-12-23T12:55:57.078Z,98857.84
2022-12-23T12:58:28.778Z,98854.38
2022-12-23T13:01:13.852Z,98845.66
2022-12-23T13:04:06.708Z,98832.50
2022-12-23T13:06:45.692Z,98816.81
2022-12-23T13:09:22.714Z,98810.72
2022-12-23T13:12:01.780Z,98795.03
2022-12-23T13:14:46.552Z,98793.25
2022-12-23T13:17:23.720Z,98792.41
2022-12-23T13:19:58.970Z,98802.00
2022-12-23T13:22:34.153Z,98795.91
2022-12-23T13:25:12.343Z,98781.06
2022-12-23T13:27:50.125Z,98763.59
2022-12-23T13:30:24.427Z,98762.72
2022-12-23T13:33:08.681Z,98763.59
2022-12-23T13:35:50.935Z,98756.63
2022-12-23T13:38:36.374Z,98747.03
2022-12-23T13:41:16.435Z,98723.47
2022-12-23T13:43:52.663Z,98734.78
2022-12-23T13:46:36.558Z,98725.19
2022-12-23T13:49:17.956Z,98726.94
2022-12-23T13:51:55.052Z,98725.19
2022-12-23T13:54:40.152Z,98730.41
2022-12-23T13:57:24.563Z,98708.63
2022-12-23T14:00:19.961Z,98680.72
2022-12-23T14:03:07.921Z,98679.84
2022-12-23T14:05:41.277Z,98683.34
2022-12-23T14:08:24.615Z,98675.47
2022-12-23T14:10:59.485Z,98667.63
2022-12-23T14:13:31.589Z,98665.03
2022-12-23T14:16:37.921Z,98651.09
2022-12-23T14:22:15.334Z,98656.28
2022-12-23T14:25:22.929Z,98650.19
2022-12-23T14:28:01.692Z,98644.09
2022-12-23T14:30:37.109Z,98634.50
2022-12-23T14:33:24.056Z,98641.50
2022-12-23T14:35:58.228Z,98634.50
2022-12-23T14:38:31.817Z,98629.31
2022-12-23T14:41:25.096Z,98620.56
2022-12-23T14:44:00.263Z,98622.31
2022-12-23T14:46:58.617Z,98624.06
2022-12-23T14:49:48.639Z,98604.03
2022-12-23T14:52:49.320Z,98599.69
2022-12-23T14:55:44.273Z,98594.47
2022-12-23T14:58:50.216Z,98595.34
2022-12-23T15:01:22.698Z,98598.84
2022-12-23T15:04:01.236Z,98592.72
2022-12-23T15:06:39.469Z,98593.63
2022-12-23T15:09:21.628Z,98597.97
2022-12-23T15:11:55.071Z,98597.13
2022-12-23T15:14:34.725Z,98590.16
2022-12-23T15:17:19.789Z,98586.66
2022-12-23T15:19:51.093Z,98592.78
2022-12-23T15:22:30.314Z,98590.16
2022-12-23T15:25:07.359Z,98600.69
2022-12-23T15:27:40.197Z,98598.06
2022-12-23T15:30:15.762Z,98605.06
2022-12-23T15:32:48.621Z,98606.81
2022-12-23T15:35:26.315Z,98610.28
2022-12-23T15:37:58.197Z,98605.09
2022-12-23T15:40:31.531Z,98604.19
2022-12-23T15:43:05.113Z,98606.84
2022-12-23T15:45:38.428Z,98598.97
2022-12-23T15:48:25.303Z,98602.47
2022-12-23T15:51:01.212Z,98603.34
2022-12-23T15:53:35.579Z,98609.47
2022-12-23T15:56:09.376Z,98605.97
2022-12-23T15:58:43.827Z,98621.66
2022-12-23T16:01:16.535Z,98614.72
2022-12-23T16:03:52.900Z,98622.56
2022-12-23T16:06:25.872Z,98629.53
2022-12-23T16:09:09.878Z,98623.44
2022-12-23T16:11:49.380Z,98626.94
2022-12-23T16:14:43.926Z,98633.06
2022-12-23T16:17:24.263Z,98629.59
2022-12-23T16:19:56.469Z,98638.31
2022-12-23T16:22:30.200Z,98635.69
2022-12-23T16:25:04.958Z,98641.81
2022-12-23T16:27:37.424Z,98640.09
2022-12-23T16:30:18.998Z,98641.81
2022-12-23T16:32:51.969Z,98642.72
2022-12-23T16:35:30.893Z,98641.84
2022-12-23T16:38:12.465Z,98643.59
2022-12-23T16:40:41.440Z,98646.22
2022-12-23T16:43:12.323Z,98649.69
2022-12-23T16:45:44.604Z,98650.59
2022-12-23T16:48:21.441Z,98661.09
2022-12-23T16:50:51.159Z,98659.31
2022-12-23T16:53:21.811Z,98655.84
2022-12-23T16:55:55.304Z,98670.69
2022-12-23T16:58:31.810Z,98662.81
2022-12-23T17:01:06.373Z,98678.53
2022-12-23T17:03:39.212Z,98671.53
2022-12-23T17:06:14.326Z,98689.88
2022-12-23T17:08:45.513Z,98683.75
2022-12-23T17:11:17.577Z,98695.13
2022-12-23T17:13:47.685Z,98703.88
2022-12-23T17:16:20.886Z,98712.59
2022-12-23T17:19:29.006Z,98719.59
2022-12-23T17:25:45.415Z,98723.09
2022-12-23T17:28:15.837Z,98726.59
2022-12-23T17:30:47.143Z,98730.97
2022-12-23T17:33:25.603Z,98726.59
2022-12-23T17:36:03.049Z,98734.47
2022-12-23T17:42:33.326Z,98766.81
2022-12-23T17:45:02.983Z,98758.94
2022-12-23T17:47:32.873Z,98767.69
2022-12-23T17:50:03.023Z,98764.19
2022-12-23T17:52:31.715Z,98777.28
2022-12-23T17:55:00.387Z,98776.41
2022-12-23T17:57:31.738Z,98773.78
2022-12-23T18:00:05.001Z,98767.69
2022-12-23T18:02:44.207Z,98777.28
2022-12-23T18:05:27.047Z,98775.56
2022-12-23T18:08:01.025Z,98773.78
2022-12-23T18:10:40.639Z,98786.03
2022-12-23T18:13:21.821Z,98812.25
2022-12-23T18:15:59.171Z,98799.13
2022-12-23T18:18:41.751Z,98800.91
2022-12-23T18:21:21.417Z,98824.50
2022-12-23T18:23:50.827Z,98820.09
2022-12-23T18:26:19.271Z,98841.91
2022-12-23T18:28:47.890Z,98819.22
2022-12-23T18:31:18.674Z,98820.09
2022-12-23T18:33:48.029Z,98817.44
2022-12-23T18:36:23.737Z,98826.19
2022-12-23T18:38:52.968Z,98839.28
2022-12-23T18:41:22.309Z,98843.66
2022-12-23T18:43:51.833Z,98845.41
2022-12-23T18:46:20.844Z,98855.91
2022-12-23T18:48:49.786Z,98854.16
2022-12-23T18:51:20.498Z,98855.03
2022-12-23T18:53:50.450Z,98851.50
2022-12-23T18:56:21.077Z,98855.91
2022-12-23T18:58:49.722Z,98855.00
2022-12-23T19:01:19.221Z,98857.63
2022-12-23T19:03:48.253Z,98862.00
2022-12-23T19:06:17.457Z,98858.50
2022-12-23T19:08:46.048Z,98858.50
2022-12-23T19:11:17.889Z,98864.63
2022-12-23T19:13:46.906Z,98865.50
2022-12-23T19:16:17.421Z,98876.88
2022-12-23T19:18:46.690Z,98875.09
2022-12-23T19:21:15.481Z,98884.72
2022-12-23T19:23:44.356Z,98893.44
2022-12-23T19:26:14.753Z,98886.47
2022-12-23T19:28:44.607Z,98890.81
2022-12-23T19:31:14.926Z,98875.09
2022-12-23T19:33:45.082Z,98883.81
2022-12-23T19:36:15.689Z,98890.81
2022-12-23T19:38:44.323Z,98892.56
2022-12-23T19:41:12.784Z,98905.66
2022-12-23T19:43:45.657Z,98901.31
2022-12-23T19:46:16.227Z,98901.31
2022-12-23T19:48:45.020Z,98913.53
2022-12-23T19:51:14.911Z,98909.16
2022-12-23T19:53:44.759Z,98923.13
2022-12-23T19:56:14.961Z,98917.03
2022-12-23T19:58:45.938Z,98923.13
2022-12-23T20:01:17.142Z,98926.63
2022-12-23T20:03:47.072Z,98939.72
2022-12-23T20:06:16.776Z,98939.72
2022-12-23T20:08:45.523Z,98945.84
2022-12-23T20:11:16.068Z,98951.09
2022-12-23T20:13:46.395Z,98955.47
2022-12-23T20:16:14.890Z,98944.97
2022-12-23T20:18:43.280Z,98960.69
2022-12-23T20:21:11.640Z,98960.69
2022-12-23T20:23:40.024Z,98969.44
2022-12-23T20:26:12.518Z,98971.19
2022-12-23T20:28:41.522Z,98977.28
2022-12-23T20:31:17.522Z,98968.56
2022-12-23T20:33:47.573Z,98987.78
2022-12-23T20:36:19.248Z,98998.25
2022-12-23T20:38:48.084Z,98997.38
2022-12-23T20:41:19.403Z,98999.13
2022-12-23T20:43:57.052Z,99001.75
2022-12-23T20:46:37.867Z,99012.25
2022-12-23T20:49:06.194Z,99012.25
2022-12-23T20:51:34.543Z,99014.84
2022-12-23T20:54:02.901Z,99023.59
2022-12-23T20:56:31.772Z,99018.34
2022-12-23T20:59:02.499Z,99024.44
2022-12-23T21:01:32.798Z,99023.56
2022-12-23T21:04:04.495Z,99034.03
2022-12-23T21:06:33.199Z,99018.28
2022-12-23T21:09:02.506Z,99039.25
2022-12-23T21:11:32.350Z,99045.38
2022-12-23T21:14:06.200Z,99046.22
2022-12-23T21:16:36.008Z,99053.22
2022-12-23T21:19:06.907Z,99041.00
2022-12-23T21:21:36.083Z,99044.50
2022-12-23T21:24:05.753Z,99047.13
2022-12-23T21:26:35.803Z,99048.88
2022-12-23T21:29:06.561Z,99040.97
2022-12-23T21:31:38.197Z,99048.00
2022-12-23T21:34:08.666Z,99058.47
2022-12-23T21:36:39.631Z,99048.00
2022-12-23T21:39:09.757Z,99060.19
2022-12-23T21:41:41.093Z,99060.19
2022-12-23T21:44:09.517Z,99070.66
2022-12-23T21:46:37.877Z,99078.53
2022-12-23T21:49:06.284Z,99073.28
2022-12-23T21:51:40.207Z,99085.47
2022-12-23T21:54:09.620Z,99074.13
2022-12-23T21:56:38.863Z,99095.06
2022-12-23T21:59:08.954Z,99095.94
2022-12-23T22:01:37.429Z,99107.28
2022-12-23T22:04:06.318Z,99112.50
2022-12-23T22:06:38.197Z,99123.81
2022-12-23T22:09:08.282Z,99122.09
2022-12-23T22:11:37.792Z,99129.94
2022-12-23T22:14:08.123Z,99125.59
2022-12-23T22:16:37.302Z,99116.81
2022-12-23T22:19:08.328Z,99126.44
2022-12-23T22:21:39.751Z,99136.91
2022-12-23T22:24:08.738Z,99136.91
2022-12-23T22:26:37.323Z,99136.00
2022-12-23T22:29:07.402Z,99141.25
2022-12-23T22:31:39.638Z,99149.09
2022-12-23T22:34:09.525Z,99155.16
2022-12-23T22:36:39.319Z,99155.13
2022-12-23T22:39:08.247Z,99158.56
2022-12-23T22:41:36.665Z,99155.94
2022-12-23T22:44:05.081Z,99192.53
2022-12-23T22:46:33.698Z,99169.84
2022-12-23T22:49:02.187Z,99186.41
2022-12-23T22:51:32.246Z,99185.50
2022-12-23T22:54:03.277Z,99202.13
2022-12-23T22:56:31.737Z,99209.06
2022-12-23T22:59:00.115Z,99210.81
2022-12-23T23:01:30.071Z,99211.69
2022-12-23T23:04:01.104Z,99217.78
2022-12-23T23:06:30.803Z,99219.53
2022-12-23T23:08:59.363Z,99227.38
2022-12-23T23:11:29.838Z,99223.00
2022-12-23T23:13:58.670Z,99227.38
2022-12-23T23:16:27.370Z,99227.38
2022-12-23T23:18:56.330Z,99240.47
2022-12-23T23:21:24.594Z,99236.09
2022-12-23T23:23:53.248Z,99240.44
2022-12-23T23:26:22.343Z,99246.50
2022-12-23T23:28:52.047Z,99236.84
2022-12-23T23:34:09.170Z,99242.03
2022-12-23T23:36:37.517Z,99229.78
2022-12-23T23:39:06.033Z,99236.78
2022-12-23T23:41:35.768Z,99228.03
2022-12-23T23:44:05.766Z,99235.91
2022-12-23T23:46:34.682Z,99243.72
2022-12-23T23:49:03.249Z,99235.00
2022-12-23T23:51:31.804Z,99249.81
2022-12-23T23:54:00.165Z,99267.28
2022-12-23T23:56:35.749Z,99268.19
2022-12-23T23:59:08.012Z,99284.75
